sensor_id;sensor_type;location;lat;lon;timestamp;pressure;altitude;pressure_sealevel;temperature;humidity
7990;BME280;4040;42.848;23.034;2023-02-15T00:01:28;96120.75;;;1.94;100.00
7990;BME280;4040;42.848;23.034;2023-02-15T00:07:18;96122.59;;;2.11;100.00
7990;BME280;4040;42.848;23.034;2023-02-15T00:13:08;96125.25;;;2.02;100.00
7990;BME280;4040;42.848;23.034;2023-02-15T00:18:58;96128.06;;;2.14;100.00
7990;BME280;4040;42.848;23.034;2023-02-15T00:24:49;96123.03;;;2.21;100.00
7990;BME280;4040;42.848;23.034;2023-02-15T00:30:38;96127.59;;;2.12;100.00
7990;BME280;4040;42.848;23.034;2023-02-15T00:36:29;96131.81;;;2.22;100.00
7990;BME280;4040;42.848;23.034;2023-02-15T00:42:18;96128.06;;;2.14;100.00
7990;BME280;4040;42.848;23.034;2023-02-15T00:48:07;96125.69;;;2.21;100.00
7990;BME280;4040;42.848;23.034;2023-02-15T00:53:57;96132.28;;;2.15;100.00
7990;BME280;4040;42.848;23.034;2023-02-15T00:59:46;96139.31;;;2.20;100.00
7990;BME280;4040;42.848;23.034;2023-02-15T01:09:48;96121.59;;;2.32;100.00
7990;BME280;4040;42.848;23.034;2023-02-15T01:15:37;96118.94;;;2.32;100.00
7990;BME280;4040;42.848;23.034;2023-02-15T01:21:26;96119.84;;;2.44;100.00
7990;BME280;4040;42.848;23.034;2023-02-15T01:27:17;96104.97;;;2.52;100.00
7990;BME280;4040;42.848;23.034;2023-02-15T01:33:06;96109.63;;;2.55;100.00
7990;BME280;4040;42.848;23.034;2023-02-15T01:38:55;96099.00;;;2.55;100.00
7990;BME280;4040;42.848;23.034;2023-02-15T01:44:50;96098.44;;;2.41;100.00
7990;BME280;4040;42.848;23.034;2023-02-15T01:50:42;96105.25;;;2.59;100.00
7990;BME280;4040;42.848;23.034;2023-02-15T01:56:34;96079.00;;;2.49;100.00
7990;BME280;4040;42.848;23.034;2023-02-15T02:02:26;96094.66;;;2.50;100.00
7990;BME280;4040;42.848;23.034;2023-02-15T02:12:40;96092.91;;;2.54;100.00
7990;BME280;4040;42.848;23.034;2023-02-15T02:18:43;96102.19;;;2.77;100.00
7990;BME280;4040;42.848;23.034;2023-02-15T02:25:06;96100.78;;;2.80;100.00
7990;BME280;4040;42.848;23.034;2023-02-15T02:31:24;96102.69;;;2.71;100.00
7990;BME280;4040;42.848;23.034;2023-02-15T02:37:23;96102.63;;;2.88;100.00
7990;BME280;4040;42.848;23.034;2023-02-15T02:43:18;96113.28;;;2.88;100.00
7990;BME280;4040;42.848;23.034;2023-02-15T02:49:09;96117.66;;;2.84;100.00
7990;BME280;4040;42.848;23.034;2023-02-15T02:55:00;96118.94;;;2.78;100.00
7990;BME280;4040;42.848;23.034;2023-02-15T03:00:53;96124.06;;;2.83;100.00
7990;BME280;4040;42.848;23.034;2023-02-15T03:06:47;96088.94;;;2.69;100.00
7990;BME280;4040;42.848;23.034;2023-02-15T03:12:40;96122.97;;;2.84;100.00
7990;BME280;4040;42.848;23.034;2023-02-15T03:18:34;96133.47;;;2.80;100.00
7990;BME280;4040;42.848;23.034;2023-02-15T03:24:28;96129.84;;;2.85;100.00
7990;BME280;4040;42.848;23.034;2023-02-15T03:30:22;96136.88;;;2.89;100.00
7990;BME280;4040;42.848;23.034;2023-02-15T03:36:18;96134.56;;;2.88;100.00
7990;BME280;4040;42.848;23.034;2023-02-15T03:42:13;96145.34;;;2.83;100.00
7990;BME280;4040;42.848;23.034;2023-02-15T03:48:06;96141.44;;;2.89;100.00
7990;BME280;4040;42.848;23.034;2023-02-15T03:53:56;96139.59;;;2.81;100.00
7990;BME280;4040;42.848;23.034;2023-02-15T03:59:46;96137.47;;;2.95;100.00
7990;BME280;4040;42.848;23.034;2023-02-15T04:05:53;96141.84;;;2.99;100.00
7990;BME280;4040;42.848;23.034;2023-02-15T04:11:42;96139.50;;;2.98;100.00
7990;BME280;4040;42.848;23.034;2023-02-15T04:17:31;96150.50;;;2.88;100.00
7990;BME280;4040;42.848;23.034;2023-02-15T04:23:21;96137.09;;;2.76;100.00
7990;BME280;4040;42.848;23.034;2023-02-15T04:29:28;96158.97;;;2.90;100.00
7990;BME280;4040;42.848;23.034;2023-02-15T04:35:17;96162.72;;;2.89;100.00
7990;BME280;4040;42.848;23.034;2023-02-15T04:41:08;96163.06;;;2.79;100.00
7990;BME280;4040;42.848;23.034;2023-02-15T04:46:59;96153.69;;;2.73;100.00
7990;BME280;4040;42.848;23.034;2023-02-15T04:52:48;96168.38;;;2.79;100.00
7990;BME280;4040;42.848;23.034;2023-02-15T04:58:38;96164.63;;;2.80;100.00
7990;BME280;4040;42.848;23.034;2023-02-15T05:04:28;96174.63;;;2.83;100.00
7990;BME280;4040;42.848;23.034;2023-02-15T05:14:21;96184.00;;;2.89;100.00
7990;BME280;4040;42.848;23.034;2023-02-15T05:20:10;96191.03;;;2.93;100.00
7990;BME280;4040;42.848;23.034;2023-02-15T05:25:59;96129.06;;;2.47;100.00
7990;BME280;4040;42.848;23.034;2023-02-15T05:32:07;96196.00;;;3.03;100.00
7990;BME280;4040;42.848;23.034;2023-02-15T05:37:56;96208.34;;;3.08;100.00
7990;BME280;4040;42.848;23.034;2023-02-15T05:43:45;96215.22;;;3.09;100.00
7990;BME280;4040;42.848;23.034;2023-02-15T05:49:35;96218.00;;;3.21;100.00
7990;BME280;4040;42.848;23.034;2023-02-15T05:55:24;96220.09;;;3.36;100.00
7990;BME280;4040;42.848;23.034;2023-02-15T06:01:15;96206.50;;;3.58;100.00
7990;BME280;4040;42.848;23.034;2023-02-15T06:07:05;96215.50;;;3.74;100.00
7990;BME280;4040;42.848;23.034;2023-02-15T06:17:16;96204.78;;;6.78;100.00
7990;BME280;4040;42.848;23.034;2023-02-15T06:23:07;96188.94;;;7.47;100.00
7990;BME280;4040;42.848;23.034;2023-02-15T06:28:56;96210.44;;;6.89;100.00
7990;BME280;4040;42.848;23.034;2023-02-15T06:34:45;96217.50;;;5.87;100.00
7990;BME280;4040;42.848;23.034;2023-02-15T06:40:36;96220.00;;;6.07;100.00
7990;BME280;4040;42.848;23.034;2023-02-15T06:46:25;96210.88;;;7.06;100.00
7990;BME280;4040;42.848;23.034;2023-02-15T06:52:14;96212.38;;;9.17;81.09
7990;BME280;4040;42.848;23.034;2023-02-15T06:58:04;96220.19;;;10.52;72.90
7990;BME280;4040;42.848;23.034;2023-02-15T07:03:53;96224.44;;;10.49;67.05
7990;BME280;4040;42.848;23.034;2023-02-15T07:09:42;96226.88;;;10.61;63.24
7990;BME280;4040;42.848;23.034;2023-02-15T07:19:54;96238.66;;;10.20;64.06
7990;BME280;4040;42.848;23.034;2023-02-15T07:25:43;96224.75;;;11.14;60.70
7990;BME280;4040;42.848;23.034;2023-02-15T07:31:32;96240.31;;;10.02;61.47
7990;BME280;4040;42.848;23.034;2023-02-15T07:37:22;96227.34;;;9.86;62.32
7990;BME280;4040;42.848;23.034;2023-02-15T07:43:12;96241.13;;;7.53;78.59
7990;BME280;4040;42.848;23.034;2023-02-15T07:49:01;96238.22;;;7.27;91.16
7990;BME280;4040;42.848;23.034;2023-02-15T07:54:52;96233.00;;;7.65;83.68
7990;BME280;4040;42.848;23.034;2023-02-15T08:00:41;96220.56;;;6.95;94.87
7990;BME280;4040;42.848;23.034;2023-02-15T08:06:52;96218.34;;;10.00;67.85
7990;BME280;4040;42.848;23.034;2023-02-15T08:12:43;96212.69;;;11.01;61.77
7990;BME280;4040;42.848;23.034;2023-02-15T08:22:54;96239.38;;;6.83;92.02
7990;BME280;4040;42.848;23.034;2023-02-15T08:28:44;96230.38;;;6.09;100.00
7990;BME280;4040;42.848;23.034;2023-02-15T08:34:36;96232.50;;;5.55;100.00
7990;BME280;4040;42.848;23.034;2023-02-15T08:40:25;96101.63;;;4.72;100.00
7990;BME280;4040;42.848;23.034;2023-02-15T08:46:16;96239.31;;;6.01;100.00
7990;BME280;4040;42.848;23.034;2023-02-15T08:52:05;96227.72;;;5.61;100.00
7990;BME280;4040;42.848;23.034;2023-02-15T08:57:55;96239.91;;;5.82;100.00
7990;BME280;4040;42.848;23.034;2023-02-15T09:03:46;96209.69;;;5.58;100.00
7990;BME280;4040;42.848;23.034;2023-02-15T09:09:37;96239.16;;;6.21;100.00
7990;BME280;4040;42.848;23.034;2023-02-15T09:15:26;96258.63;;;6.34;100.00
7990;BME280;4040;42.848;23.034;2023-02-15T09:25:38;96245.97;;;7.63;80.62
7990;BME280;4040;42.848;23.034;2023-02-15T09:31:31;96235.44;;;7.54;85.42
7990;BME280;4040;42.848;23.034;2023-02-15T09:37:20;96245.22;;;7.62;75.17
7990;BME280;4040;42.848;23.034;2023-02-15T09:43:26;96246.69;;;7.29;81.28
7990;BME280;4040;42.848;23.034;2023-02-15T09:49:22;96248.84;;;7.24;82.75
7990;BME280;4040;42.848;23.034;2023-02-15T09:55:28;96246.72;;;6.86;85.67
7990;BME280;4040;42.848;23.034;2023-02-15T10:01:28;96258.22;;;6.20;93.30
7990;BME280;4040;42.848;23.034;2023-02-15T10:07:37;96241.00;;;6.33;92.13
7990;BME280;4040;42.848;23.034;2023-02-15T10:13:34;96222.22;;;6.17;92.60
7990;BME280;4040;42.848;23.034;2023-02-15T10:19:39;96233.34;;;6.31;97.47
7990;BME280;4040;42.848;23.034;2023-02-15T10:25:40;96246.66;;;6.43;95.00
7990;BME280;4040;42.848;23.034;2023-02-15T10:31:36;96228.75;;;6.59;94.13
7990;BME280;4040;42.848;23.034;2023-02-15T10:37:49;96211.13;;;6.58;93.95
7990;BME280;4040;42.848;23.034;2023-02-15T10:43:50;96231.84;;;6.61;98.70
7990;BME280;4040;42.848;23.034;2023-02-15T10:49:55;96206.81;;;6.26;97.94
7990;BME280;4040;42.848;23.034;2023-02-15T10:55:53;96200.22;;;6.24;98.96
7990;BME280;4040;42.848;23.034;2023-02-15T11:01:48;96201.34;;;7.09;89.79
7990;BME280;4040;42.848;23.034;2023-02-15T11:07:41;96176.50;;;7.08;84.14
7990;BME280;4040;42.848;23.034;2023-02-15T11:13:36;96175.22;;;8.78;69.68
7990;BME280;4040;42.848;23.034;2023-02-15T11:19:30;96184.09;;;7.37;74.50
7990;BME280;4040;42.848;23.034;2023-02-15T11:25:24;96186.88;;;6.94;79.52
7990;BME280;4040;42.848;23.034;2023-02-15T11:31:17;96181.00;;;7.04;84.04
7990;BME280;4040;42.848;23.034;2023-02-15T11:37:11;96175.53;;;6.85;81.64
7990;BME280;4040;42.848;23.034;2023-02-15T11:43:04;96168.91;;;11.14;64.36
7990;BME280;4040;42.848;23.034;2023-02-15T11:48:56;96149.13;;;14.26;49.55
7990;BME280;4040;42.848;23.034;2023-02-15T11:54:49;96082.72;;;13.13;48.04
7990;BME280;4040;42.848;23.034;2023-02-15T12:00:41;96136.72;;;12.81;50.34
7990;BME280;4040;42.848;23.034;2023-02-15T12:06:34;96148.34;;;14.01;48.55
7990;BME280;4040;42.848;23.034;2023-02-15T12:12:27;96119.69;;;15.03;44.40
7990;BME280;4040;42.848;23.034;2023-02-15T12:18:24;96137.19;;;11.98;48.99
7990;BME280;4040;42.848;23.034;2023-02-15T12:28:44;96134.59;;;8.19;62.06
7990;BME280;4040;42.848;23.034;2023-02-15T12:34:39;96102.13;;;7.36;70.11
7990;BME280;4040;42.848;23.034;2023-02-15T12:40:32;96125.78;;;7.15;76.68
7990;BME280;4040;42.848;23.034;2023-02-15T12:46:25;96123.75;;;7.12;78.80
7990;BME280;4040;42.848;23.034;2023-02-15T12:52:24;96106.72;;;7.36;76.90
7990;BME280;4040;42.848;23.034;2023-02-15T12:58:17;96116.16;;;7.14;81.09
7990;BME280;4040;42.848;23.034;2023-02-15T13:04:18;96115.91;;;7.04;82.19
7990;BME280;4040;42.848;23.034;2023-02-15T13:10:20;96110.84;;;6.83;84.40
7990;BME280;4040;42.848;23.034;2023-02-15T13:16:13;96106.94;;;6.65;84.51
7990;BME280;4040;42.848;23.034;2023-02-15T13:22:08;96110.97;;;6.59;87.44
7990;BME280;4040;42.848;23.034;2023-02-15T13:28:02;96107.50;;;6.43;90.86
7990;BME280;4040;42.848;23.034;2023-02-15T13:33:54;96050.78;;;5.79;93.75
7990;BME280;4040;42.848;23.034;2023-02-15T13:40:02;96118.00;;;6.21;97.35
7990;BME280;4040;42.848;23.034;2023-02-15T13:46:10;96127.47;;;5.91;100.00
7990;BME280;4040;42.848;23.034;2023-02-15T13:52:08;96119.81;;;5.89;100.00
7990;BME280;4040;42.848;23.034;2023-02-15T14:00:58;96127.78;;;6.01;100.00
7990;BME280;4040;42.848;23.034;2023-02-15T14:13:36;96132.06;;;5.66;100.00
7990;BME280;4040;42.848;23.034;2023-02-15T14:19:33;96134.09;;;5.57;100.00
7990;BME280;4040;42.848;23.034;2023-02-15T14:29:24;96134.47;;;5.32;100.00
7990;BME280;4040;42.848;23.034;2023-02-15T14:35:18;96135.69;;;5.22;100.00
7990;BME280;4040;42.848;23.034;2023-02-15T14:41:11;96103.44;;;5.03;100.00
7990;BME280;4040;42.848;23.034;2023-02-15T14:47:05;96129.91;;;5.20;100.00
7990;BME280;4040;42.848;23.034;2023-02-15T14:53:25;96143.47;;;5.15;100.00
7990;BME280;4040;42.848;23.034;2023-02-15T14:59:23;96141.47;;;5.00;100.00
7990;BME280;4040;42.848;23.034;2023-02-15T15:05:18;96121.56;;;4.86;100.00
7990;BME280;4040;42.848;23.034;2023-02-15T15:17:54;96144.53;;;4.55;100.00
7990;BME280;4040;42.848;23.034;2023-02-15T15:23:45;96136.97;;;4.45;100.00
7990;BME280;4040;42.848;23.034;2023-02-15T15:29:40;96135.81;;;4.34;100.00
7990;BME280;4040;42.848;23.034;2023-02-15T15:35:34;96139.09;;;4.19;100.00
7990;BME280;4040;42.848;23.034;2023-02-15T15:41:40;96149.72;;;4.07;100.00
7990;BME280;4040;42.848;23.034;2023-02-15T15:47:45;96152.06;;;3.88;100.00
7990;BME280;4040;42.848;23.034;2023-02-15T15:53:40;96127.06;;;3.60;100.00
7990;BME280;4040;42.848;23.034;2023-02-15T15:59:33;96157.94;;;3.61;100.00
7990;BME280;4040;42.848;23.034;2023-02-15T16:05:22;96165.97;;;3.52;100.00
7990;BME280;4040;42.848;23.034;2023-02-15T16:11:15;96164.00;;;3.41;100.00
7990;BME280;4040;42.848;23.034;2023-02-15T16:17:13;96154.50;;;3.31;100.00
7990;BME280;4040;42.848;23.034;2023-02-15T16:23:15;96153.81;;;3.14;100.00
7990;BME280;4040;42.848;23.034;2023-02-15T16:29:14;96159.69;;;2.99;100.00
7990;BME280;4040;42.848;23.034;2023-02-15T16:35:13;96155.44;;;2.60;100.00
7990;BME280;4040;42.848;23.034;2023-02-15T16:41:02;96169.75;;;2.39;100.00
7990;BME280;4040;42.848;23.034;2023-02-15T16:46:53;96154.13;;;2.29;100.00
7990;BME280;4040;42.848;23.034;2023-02-15T16:52:44;96164.47;;;2.22;100.00
7990;BME280;4040;42.848;23.034;2023-02-15T16:58:37;96151.19;;;1.97;100.00
7990;BME280;4040;42.848;23.034;2023-02-15T17:04:29;96157.00;;;1.90;100.00
7990;BME280;4040;42.848;23.034;2023-02-15T17:10:31;96159.97;;;1.72;100.00
7990;BME280;4040;42.848;23.034;2023-02-15T17:16:27;96170.44;;;1.68;100.00
7990;BME280;4040;42.848;23.034;2023-02-15T17:22:19;96152.63;;;1.60;100.00
7990;BME280;4040;42.848;23.034;2023-02-15T17:32:18;96163.88;;;1.57;100.00
7990;BME280;4040;42.848;23.034;2023-02-15T17:38:17;96166.97;;;1.59;100.00
7990;BME280;4040;42.848;23.034;2023-02-15T17:44:07;96159.66;;;1.48;100.00
7990;BME280;4040;42.848;23.034;2023-02-15T17:50:04;96168.22;;;1.36;100.00
7990;BME280;4040;42.848;23.034;2023-02-15T17:55:53;96155.34;;;1.04;100.00
7990;BME280;4040;42.848;23.034;2023-02-15T18:01:45;96167.69;;;1.09;100.00
7990;BME280;4040;42.848;23.034;2023-02-15T18:07:54;96168.88;;;0.94;100.00
7990;BME280;4040;42.848;23.034;2023-02-15T18:14:00;96166.78;;;0.74;100.00
7990;BME280;4040;42.848;23.034;2023-02-15T18:19:49;96150.81;;;0.57;100.00
7990;BME280;4040;42.848;23.034;2023-02-15T18:25:40;96171.72;;;0.67;100.00
7990;BME280;4040;42.848;23.034;2023-02-15T18:35:51;96155.16;;;0.53;100.00
7990;BME280;4040;42.848;23.034;2023-02-15T18:41:42;96165.13;;;0.56;100.00
7990;BME280;4040;42.848;23.034;2023-02-15T18:47:30;96164.28;;;0.69;100.00
7990;BME280;4040;42.848;23.034;2023-02-15T18:53:20;96167.75;;;0.78;100.00
7990;BME280;4040;42.848;23.034;2023-02-15T18:59:14;96153.41;;;0.79;100.00
7990;BME280;4040;42.848;23.034;2023-02-15T19:05:04;96164.59;;;0.76;100.00
7990;BME280;4040;42.848;23.034;2023-02-15T19:10:53;96142.28;;;0.69;100.00
7990;BME280;4040;42.848;23.034;2023-02-15T19:16:43;96143.34;;;0.59;100.00
7990;BME280;4040;42.848;23.034;2023-02-15T19:22:32;96156.38;;;0.47;100.00
7990;BME280;4040;42.848;23.034;2023-02-15T19:28:27;96158.75;;;0.27;100.00
7990;BME280;4040;42.848;23.034;2023-02-15T19:38:42;96166.44;;;0.06;100.00
7990;BME280;4040;42.848;23.034;2023-02-15T19:44:31;96162.94;;;-0.03;100.00
7990;BME280;4040;42.848;23.034;2023-02-15T19:50:22;96171.00;;;-0.08;100.00
7990;BME280;4040;42.848;23.034;2023-02-15T19:56:16;96168.47;;;-0.12;100.00
7990;BME280;4040;42.848;23.034;2023-02-15T20:02:06;96174.63;;;-0.25;100.00
7990;BME280;4040;42.848;23.034;2023-02-15T20:07:55;96164.38;;;-0.18;100.00
7990;BME280;4040;42.848;23.034;2023-02-15T20:13:46;96169.09;;;-0.15;100.00
7990;BME280;4040;42.848;23.034;2023-02-15T20:19:35;96113.31;;;-0.41;100.00
7990;BME280;4040;42.848;23.034;2023-02-15T20:25:27;96137.19;;;-0.10;100.00
7990;BME280;4040;42.848;23.034;2023-02-15T20:31:19;96162.44;;;0.17;100.00
7990;BME280;4040;42.848;23.034;2023-02-15T20:41:30;96134.16;;;-0.39;100.00
7990;BME280;4040;42.848;23.034;2023-02-15T20:47:27;96158.84;;;-0.30;100.00
7990;BME280;4040;42.848;23.034;2023-02-15T20:53:16;96150.41;;;-0.54;100.00
7990;BME280;4040;42.848;23.034;2023-02-15T20:59:18;96134.22;;;-1.02;100.00
7990;BME280;4040;42.848;23.034;2023-02-15T21:05:20;96160.97;;;-1.03;100.00
7990;BME280;4040;42.848;23.034;2023-02-15T21:11:17;96157.72;;;-1.00;100.00
7990;BME280;4040;42.848;23.034;2023-02-15T21:17:09;96126.50;;;-1.39;100.00
7990;BME280;4040;42.848;23.034;2023-02-15T21:23:02;96158.63;;;-1.32;100.00
7990;BME280;4040;42.848;23.034;2023-02-15T21:28:56;96090.41;;;-1.70;100.00
7990;BME280;4040;42.848;23.034;2023-02-15T21:34:45;96155.59;;;-0.98;100.00
7990;BME280;4040;42.848;23.034;2023-02-15T21:40:36;96160.88;;;-0.98;100.00
7990;BME280;4040;42.848;23.034;2023-02-15T21:46:25;96158.72;;;-0.96;100.00
7990;BME280;4040;42.848;23.034;2023-02-15T21:52:32;96169.78;;;-0.94;100.00
7990;BME280;4040;42.848;23.034;2023-02-15T21:58:24;96169.09;;;-1.00;100.00
7990;BME280;4040;42.848;23.034;2023-02-15T22:04:20;96163.19;;;-1.10;100.00
7990;BME280;4040;42.848;23.034;2023-02-15T22:10:10;96172.91;;;-0.92;100.00
7990;BME280;4040;42.848;23.034;2023-02-15T22:16:02;96173.38;;;-0.90;100.00
7990;BME280;4040;42.848;23.034;2023-02-15T22:21:51;96173.38;;;-0.90;100.00
7990;BME280;4040;42.848;23.034;2023-02-15T22:27:42;96165.56;;;-0.95;100.00
7990;BME280;4040;42.848;23.034;2023-02-15T22:33:33;96172.00;;;-1.01;100.00
7990;BME280;4040;42.848;23.034;2023-02-15T22:43:37;96181.44;;;-1.09;100.00
7990;BME280;4040;42.848;23.034;2023-02-15T22:49:28;96180.84;;;-1.19;100.00
7990;BME280;4040;42.848;23.034;2023-02-15T22:55:20;96185.94;;;-1.36;100.00
7990;BME280;4040;42.848;23.034;2023-02-15T23:08:31;96185.31;;;-1.47;100.00
7990;BME280;4040;42.848;23.034;2023-02-15T23:14:24;96175.25;;;-1.58;100.00
7990;BME280;4040;42.848;23.034;2023-02-15T23:20:15;96172.56;;;-1.72;100.00
7990;BME280;4040;42.848;23.034;2023-02-15T23:26:14;96174.41;;;-1.72;100.00
7990;BME280;4040;42.848;23.034;2023-02-15T23:32:04;96170.63;;;-1.66;100.00
7990;BME280;4040;42.848;23.034;2023-02-15T23:37:53;96164.75;;;-1.63;100.00
7990;BME280;4040;42.848;23.034;2023-02-15T23:43:45;96177.75;;;-1.80;100.00
7990;BME280;4040;42.848;23.034;2023-02-15T23:49:34;96182.91;;;-1.75;100.00
7990;BME280;4040;42.848;23.034;2023-02-15T23:55:27;96173.03;;;-1.83;100.00
